Kezdőlap
METAR-TAF:

METAR-TAF

Repülőterek :

Visby, Gotland, Svédország

földrajzi szélesség: 57-40N, földrajzi hosszúság: 018-21E, magasság: 51 m

Jelenlegi meteorológiai megfigyelések

A jelentés 36 perccel ezelõtt készült, 21:20 UTC
Délnyugati szél 6 kt
Hőmérséklet 16°C
Páratartalom 82%
Légköri nyomás 1016 hPa
Látótávolság 10 km, vagy több

METAR: ESSV 192120Z AUTO 22006KT 9999 NCD 16/13 Q1016

Idő: 23:56 (21:56 UTC)

Előrejelzés

A jelentés 4 órával és 26 perccel ezelõtt készült, 17:30 UTC
Az előrejelzés 19-én 18 óra UTC és 19-én 20 óra UTC között érvényes
Nyugat-délnyugati szél 10 kt
Látótávolság 10 km, vagy több
felhőtlen 1500 m magasságban, és nincs gomolyfelhõ

TAF: ESSV 191730Z 1918/1920 24010KT CAVOK

Meteorológiai megfigyelések és előrejelzések több, mint 4000 repülőtéren (METAR és TAF jelentéseket).

A térképen piros és sárga pontok jelzik az elérhető meteorológiai állomásokat.

Mozgassa az egeret a pont fölött, hogy megjelenjen az állomás neve.

Azután kattintson az időjárási megfigyelések és előrejelzések megtekintéséhez.

A térkép megváltoztatása: kattintson a fekete keresztel jelölt zöld gombra ráközelítéshez, a vonallal jelölt zöld gombra távolításhoz, vagy a zöld nyilakra a szomszédos térképek eléréséhez.


METAR-TAF: